sensor_id;sensor_type;location;lat;lon;timestamp;P1;durP1;ratioP1;P2;durP2;ratioP2
24745;SDS011;12845;52.042;6.838;2022-11-12T00:00:33;17.73;;;9.77;;
24745;SDS011;12845;52.042;6.838;2022-11-12T00:02:59;14.52;;;10.23;;
24745;SDS011;12845;52.042;6.838;2022-11-12T00:05:24;16.85;;;10.45;;
24745;SDS011;12845;52.042;6.838;2022-11-12T00:07:50;13.65;;;9.75;;
24745;SDS011;12845;52.042;6.838;2022-11-12T00:10:15;14.90;;;10.52;;
24745;SDS011;12845;52.042;6.838;2022-11-12T00:12:41;18.27;;;10.30;;
24745;SDS011;12845;52.042;6.838;2022-11-12T00:15:07;14.27;;;9.73;;
24745;SDS011;12845;52.042;6.838;2022-11-12T00:17:33;15.10;;;10.10;;
24745;SDS011;12845;52.042;6.838;2022-11-12T00:19:58;14.73;;;10.05;;
24745;SDS011;12845;52.042;6.838;2022-11-12T00:22:24;14.13;;;10.27;;
24745;SDS011;12845;52.042;6.838;2022-11-12T00:24:49;17.50;;;10.32;;
24745;SDS011;12845;52.042;6.838;2022-11-12T00:27:14;13.55;;;10.02;;
24745;SDS011;12845;52.042;6.838;2022-11-12T00:29:40;13.43;;;9.82;;
24745;SDS011;12845;52.042;6.838;2022-11-12T00:32:05;14.32;;;10.23;;
24745;SDS011;12845;52.042;6.838;2022-11-12T00:34:31;14.95;;;10.32;;
24745;SDS011;12845;52.042;6.838;2022-11-12T00:36:57;16.38;;;9.73;;
24745;SDS011;12845;52.042;6.838;2022-11-12T00:39:23;15.57;;;11.63;;
24745;SDS011;12845;52.042;6.838;2022-11-12T00:41:49;18.25;;;11.45;;
24745;SDS011;12845;52.042;6.838;2022-11-12T00:44:14;17.38;;;10.93;;
24745;SDS011;12845;52.042;6.838;2022-11-12T00:46:40;18.85;;;12.02;;
24745;SDS011;12845;52.042;6.838;2022-11-12T00:49:05;17.05;;;11.35;;
24745;SDS011;12845;52.042;6.838;2022-11-12T00:51:31;16.90;;;12.10;;
24745;SDS011;12845;52.042;6.838;2022-11-12T00:53:57;15.40;;;10.73;;
24745;SDS011;12845;52.042;6.838;2022-11-12T00:56:22;16.25;;;11.90;;
24745;SDS011;12845;52.042;6.838;2022-11-12T00:58:47;19.15;;;11.82;;
24745;SDS011;12845;52.042;6.838;2022-11-12T01:01:14;19.75;;;12.63;;
24745;SDS011;12845;52.042;6.838;2022-11-12T01:03:40;18.02;;;12.38;;
24745;SDS011;12845;52.042;6.838;2022-11-12T01:06:10;19.30;;;12.93;;
24745;SDS011;12845;52.042;6.838;2022-11-12T01:08:36;15.70;;;12.02;;
24745;SDS011;12845;52.042;6.838;2022-11-12T01:11:05;18.77;;;12.32;;
24745;SDS011;12845;52.042;6.838;2022-11-12T01:13:35;17.42;;;12.07;;
24745;SDS011;12845;52.042;6.838;2022-11-12T01:16:06;20.17;;;11.80;;
24745;SDS011;12845;52.042;6.838;2022-11-12T01:18:32;20.35;;;12.23;;
24745;SDS011;12845;52.042;6.838;2022-11-12T01:21:02;17.45;;;11.85;;
24745;SDS011;12845;52.042;6.838;2022-11-12T01:23:27;17.63;;;12.15;;
24745;SDS011;12845;52.042;6.838;2022-11-12T01:25:53;16.38;;;11.35;;
24745;SDS011;12845;52.042;6.838;2022-11-12T01:28:18;18.65;;;12.40;;
24745;SDS011;12845;52.042;6.838;2022-11-12T01:30:43;19.58;;;12.07;;
24745;SDS011;12845;52.042;6.838;2022-11-12T01:33:09;17.10;;;11.93;;
24745;SDS011;12845;52.042;6.838;2022-11-12T01:35:34;16.52;;;11.45;;
24745;SDS011;12845;52.042;6.838;2022-11-12T01:37:59;18.30;;;11.98;;
24745;SDS011;12845;52.042;6.838;2022-11-12T01:40:25;16.88;;;11.82;;
24745;SDS011;12845;52.042;6.838;2022-11-12T01:42:51;15.68;;;11.38;;
24745;SDS011;12845;52.042;6.838;2022-11-12T01:45:18;18.45;;;11.43;;
24745;SDS011;12845;52.042;6.838;2022-11-12T01:47:43;17.88;;;11.90;;
24745;SDS011;12845;52.042;6.838;2022-11-12T01:50:15;16.85;;;11.52;;
24745;SDS011;12845;52.042;6.838;2022-11-12T01:52:47;15.38;;;11.23;;
24745;SDS011;12845;52.042;6.838;2022-11-12T01:55:17;16.67;;;11.32;;
24745;SDS011;12845;52.042;6.838;2022-11-12T01:57:47;17.58;;;11.48;;
24745;SDS011;12845;52.042;6.838;2022-11-12T02:00:17;15.70;;;10.30;;
24745;SDS011;12845;52.042;6.838;2022-11-12T02:02:44;16.30;;;10.85;;
24745;SDS011;12845;52.042;6.838;2022-11-12T02:05:12;16.88;;;11.57;;
24745;SDS011;12845;52.042;6.838;2022-11-12T02:07:40;15.57;;;11.50;;
24745;SDS011;12845;52.042;6.838;2022-11-12T02:10:08;16.83;;;10.70;;
24745;SDS011;12845;52.042;6.838;2022-11-12T02:12:33;13.90;;;10.23;;
24745;SDS011;12845;52.042;6.838;2022-11-12T02:15:18;15.48;;;11.40;;
24745;SDS011;12845;52.042;6.838;2022-11-12T02:17:44;16.58;;;11.52;;
24745;SDS011;12845;52.042;6.838;2022-11-12T02:20:10;16.25;;;10.75;;
24745;SDS011;12845;52.042;6.838;2022-11-12T02:22:36;19.25;;;11.07;;
24745;SDS011;12845;52.042;6.838;2022-11-12T02:25:02;15.43;;;11.38;;
24745;SDS011;12845;52.042;6.838;2022-11-12T02:27:27;15.73;;;10.73;;
24745;SDS011;12845;52.042;6.838;2022-11-12T02:29:53;16.38;;;11.15;;
24745;SDS011;12845;52.042;6.838;2022-11-12T02:32:18;17.58;;;11.50;;
24745;SDS011;12845;52.042;6.838;2022-11-12T02:34:44;18.10;;;11.90;;
24745;SDS011;12845;52.042;6.838;2022-11-12T02:37:09;17.05;;;10.90;;
24745;SDS011;12845;52.042;6.838;2022-11-12T02:39:35;19.48;;;12.20;;
24745;SDS011;12845;52.042;6.838;2022-11-12T02:42:00;18.55;;;10.65;;
24745;SDS011;12845;52.042;6.838;2022-11-12T02:44:25;14.98;;;10.45;;
24745;SDS011;12845;52.042;6.838;2022-11-12T02:46:51;17.58;;;11.30;;
24745;SDS011;12845;52.042;6.838;2022-11-12T02:49:16;16.80;;;9.90;;
24745;SDS011;12845;52.042;6.838;2022-11-12T02:51:41;12.00;;;9.60;;
24745;SDS011;12845;52.042;6.838;2022-11-12T02:54:07;18.10;;;11.15;;
24745;SDS011;12845;52.042;6.838;2022-11-12T02:56:32;16.67;;;10.50;;
24745;SDS011;12845;52.042;6.838;2022-11-12T02:58:59;13.73;;;9.82;;
24745;SDS011;12845;52.042;6.838;2022-11-12T03:01:25;18.20;;;10.68;;
24745;SDS011;12845;52.042;6.838;2022-11-12T03:03:50;14.15;;;9.82;;
24745;SDS011;12845;52.042;6.838;2022-11-12T03:06:16;15.70;;;10.43;;
24745;SDS011;12845;52.042;6.838;2022-11-12T03:08:41;15.18;;;10.57;;
24745;SDS011;12845;52.042;6.838;2022-11-12T03:11:08;16.70;;;10.82;;
24745;SDS011;12845;52.042;6.838;2022-11-12T03:13:38;16.23;;;10.27;;
24745;SDS011;12845;52.042;6.838;2022-11-12T03:16:05;18.25;;;11.25;;
24745;SDS011;12845;52.042;6.838;2022-11-12T03:18:30;15.20;;;11.07;;
24745;SDS011;12845;52.042;6.838;2022-11-12T03:20:56;18.55;;;10.52;;
24745;SDS011;12845;52.042;6.838;2022-11-12T03:23:21;13.95;;;10.90;;
24745;SDS011;12845;52.042;6.838;2022-11-12T03:25:47;16.85;;;10.77;;
24745;SDS011;12845;52.042;6.838;2022-11-12T03:28:13;21.20;;;12.30;;
24745;SDS011;12845;52.042;6.838;2022-11-12T03:30:40;15.73;;;10.95;;
24745;SDS011;12845;52.042;6.838;2022-11-12T03:33:07;16.88;;;11.30;;
24745;SDS011;12845;52.042;6.838;2022-11-12T03:35:34;17.20;;;11.02;;
24745;SDS011;12845;52.042;6.838;2022-11-12T03:38:01;14.80;;;10.85;;
24745;SDS011;12845;52.042;6.838;2022-11-12T03:40:27;17.98;;;11.00;;
24745;SDS011;12845;52.042;6.838;2022-11-12T03:42:53;21.08;;;11.95;;
24745;SDS011;12845;52.042;6.838;2022-11-12T03:45:20;20.05;;;11.95;;
24745;SDS011;12845;52.042;6.838;2022-11-12T03:47:47;18.13;;;10.32;;
24745;SDS011;12845;52.042;6.838;2022-11-12T03:50:15;15.48;;;10.45;;
24745;SDS011;12845;52.042;6.838;2022-11-12T03:52:48;14.15;;;10.05;;
24745;SDS011;12845;52.042;6.838;2022-11-12T03:55:18;20.02;;;11.90;;
24745;SDS011;12845;52.042;6.838;2022-11-12T03:57:46;19.05;;;11.52;;
24745;SDS011;12845;52.042;6.838;2022-11-12T04:00:13;17.73;;;11.75;;
24745;SDS011;12845;52.042;6.838;2022-11-12T04:02:38;17.85;;;12.18;;
24745;SDS011;12845;52.042;6.838;2022-11-12T04:05:04;20.48;;;11.35;;
24745;SDS011;12845;52.042;6.838;2022-11-12T04:11:03;19.08;;;11.75;;
24745;SDS011;12845;52.042;6.838;2022-11-12T04:13:39;18.52;;;11.07;;
24745;SDS011;12845;52.042;6.838;2022-11-12T04:16:18;17.70;;;11.80;;
24745;SDS011;12845;52.042;6.838;2022-11-12T04:19:05;19.77;;;11.02;;
24745;SDS011;12845;52.042;6.838;2022-11-12T04:21:55;19.45;;;11.27;;
24745;SDS011;12845;52.042;6.838;2022-11-12T04:24:33;15.90;;;11.25;;
24745;SDS011;12845;52.042;6.838;2022-11-12T04:27:23;19.35;;;11.95;;
24745;SDS011;12845;52.042;6.838;2022-11-12T04:29:50;15.80;;;10.57;;
24745;SDS011;12845;52.042;6.838;2022-11-12T04:32:38;20.65;;;11.48;;
24745;SDS011;12845;52.042;6.838;2022-11-12T04:35:09;17.77;;;11.05;;
24745;SDS011;12845;52.042;6.838;2022-11-12T04:37:35;19.23;;;11.88;;
24745;SDS011;12845;52.042;6.838;2022-11-12T04:40:14;18.10;;;10.65;;
24745;SDS011;12845;52.042;6.838;2022-11-12T04:43:09;23.42;;;15.93;;
24745;SDS011;12845;52.042;6.838;2022-11-12T04:45:57;19.92;;;14.45;;
24745;SDS011;12845;52.042;6.838;2022-11-12T04:48:24;21.67;;;14.27;;
24745;SDS011;12845;52.042;6.838;2022-11-12T04:50:53;19.25;;;12.98;;
24745;SDS011;12845;52.042;6.838;2022-11-12T04:53:21;16.02;;;11.43;;
24745;SDS011;12845;52.042;6.838;2022-11-12T04:55:50;17.67;;;11.07;;
24745;SDS011;12845;52.042;6.838;2022-11-12T04:58:17;21.67;;;12.63;;
24745;SDS011;12845;52.042;6.838;2022-11-12T05:00:43;20.95;;;11.95;;
24745;SDS011;12845;52.042;6.838;2022-11-12T05:03:09;18.15;;;12.48;;
24745;SDS011;12845;52.042;6.838;2022-11-12T05:05:34;20.98;;;13.38;;
24745;SDS011;12845;52.042;6.838;2022-11-12T05:08:00;26.77;;;13.52;;
24745;SDS011;12845;52.042;6.838;2022-11-12T05:10:26;18.73;;;12.50;;
24745;SDS011;12845;52.042;6.838;2022-11-12T05:12:52;17.92;;;12.27;;
24745;SDS011;12845;52.042;6.838;2022-11-12T05:15:17;19.98;;;12.15;;
24745;SDS011;12845;52.042;6.838;2022-11-12T05:17:43;16.10;;;10.90;;
24745;SDS011;12845;52.042;6.838;2022-11-12T05:20:09;17.40;;;12.35;;
24745;SDS011;12845;52.042;6.838;2022-11-12T05:22:36;21.50;;;12.65;;
24745;SDS011;12845;52.042;6.838;2022-11-12T05:25:01;19.13;;;11.98;;
24745;SDS011;12845;52.042;6.838;2022-11-12T05:27:27;20.23;;;11.35;;
24745;SDS011;12845;52.042;6.838;2022-11-12T05:29:52;16.77;;;11.68;;
24745;SDS011;12845;52.042;6.838;2022-11-12T05:32:18;17.30;;;11.48;;
24745;SDS011;12845;52.042;6.838;2022-11-12T05:34:43;19.67;;;12.20;;
24745;SDS011;12845;52.042;6.838;2022-11-12T05:37:09;18.15;;;12.63;;
24745;SDS011;12845;52.042;6.838;2022-11-12T05:39:36;19.58;;;13.30;;
24745;SDS011;12845;52.042;6.838;2022-11-12T05:42:01;20.65;;;11.45;;
24745;SDS011;12845;52.042;6.838;2022-11-12T05:44:27;21.20;;;13.80;;
24745;SDS011;12845;52.042;6.838;2022-11-12T05:46:52;23.05;;;12.52;;
24745;SDS011;12845;52.042;6.838;2022-11-12T05:49:18;19.13;;;13.23;;
24745;SDS011;12845;52.042;6.838;2022-11-12T05:51:43;21.35;;;11.55;;
24745;SDS011;12845;52.042;6.838;2022-11-12T05:54:09;20.80;;;12.32;;
24745;SDS011;12845;52.042;6.838;2022-11-12T05:56:35;19.63;;;11.75;;
24745;SDS011;12845;52.042;6.838;2022-11-12T05:59:02;18.77;;;12.50;;
24745;SDS011;12845;52.042;6.838;2022-11-12T06:01:28;18.00;;;11.98;;
24745;SDS011;12845;52.042;6.838;2022-11-12T06:03:54;20.30;;;12.60;;
24745;SDS011;12845;52.042;6.838;2022-11-12T06:06:20;18.90;;;11.35;;
24745;SDS011;12845;52.042;6.838;2022-11-12T06:08:45;16.88;;;12.00;;
24745;SDS011;12845;52.042;6.838;2022-11-12T06:11:11;21.08;;;12.77;;
24745;SDS011;12845;52.042;6.838;2022-11-12T06:13:36;15.20;;;11.27;;
24745;SDS011;12845;52.042;6.838;2022-11-12T06:16:02;17.67;;;11.27;;
24745;SDS011;12845;52.042;6.838;2022-11-12T06:18:27;16.67;;;11.82;;
24745;SDS011;12845;52.042;6.838;2022-11-12T06:20:52;18.20;;;12.38;;
24745;SDS011;12845;52.042;6.838;2022-11-12T06:23:36;20.63;;;13.82;;
24745;SDS011;12845;52.042;6.838;2022-11-12T06:26:02;19.80;;;12.02;;
24745;SDS011;12845;52.042;6.838;2022-11-12T06:28:28;18.27;;;12.15;;
24745;SDS011;12845;52.042;6.838;2022-11-12T06:30:53;16.45;;;11.18;;
24745;SDS011;12845;52.042;6.838;2022-11-12T06:33:19;14.02;;;11.52;;
24745;SDS011;12845;52.042;6.838;2022-11-12T06:35:45;20.75;;;12.50;;
24745;SDS011;12845;52.042;6.838;2022-11-12T06:38:10;18.10;;;12.45;;
24745;SDS011;12845;52.042;6.838;2022-11-12T06:40:36;19.60;;;12.98;;
24745;SDS011;12845;52.042;6.838;2022-11-12T06:43:01;16.60;;;11.27;;
24745;SDS011;12845;52.042;6.838;2022-11-12T06:45:27;19.08;;;12.48;;
24745;SDS011;12845;52.042;6.838;2022-11-12T06:47:56;16.45;;;11.65;;
24745;SDS011;12845;52.042;6.838;2022-11-12T06:50:22;21.20;;;11.88;;
24745;SDS011;12845;52.042;6.838;2022-11-12T06:52:47;18.80;;;11.88;;
24745;SDS011;12845;52.042;6.838;2022-11-12T06:55:13;17.10;;;12.35;;
24745;SDS011;12845;52.042;6.838;2022-11-12T06:57:38;21.77;;;13.65;;
24745;SDS011;12845;52.042;6.838;2022-11-12T07:00:04;16.60;;;12.32;;
24745;SDS011;12845;52.042;6.838;2022-11-12T07:02:30;18.95;;;13.18;;
24745;SDS011;12845;52.042;6.838;2022-11-12T07:04:55;19.02;;;13.25;;
24745;SDS011;12845;52.042;6.838;2022-11-12T07:07:20;20.00;;;13.38;;
24745;SDS011;12845;52.042;6.838;2022-11-12T07:09:46;19.10;;;12.90;;
24745;SDS011;12845;52.042;6.838;2022-11-12T07:12:11;21.20;;;14.88;;
24745;SDS011;12845;52.042;6.838;2022-11-12T07:14:36;18.33;;;13.43;;
24745;SDS011;12845;52.042;6.838;2022-11-12T07:17:02;20.67;;;14.40;;
24745;SDS011;12845;52.042;6.838;2022-11-12T07:19:27;23.90;;;14.55;;
24745;SDS011;12845;52.042;6.838;2022-11-12T07:21:52;20.58;;;13.55;;
24745;SDS011;12845;52.042;6.838;2022-11-12T07:24:18;17.25;;;13.20;;
24745;SDS011;12845;52.042;6.838;2022-11-12T07:26:43;18.02;;;13.20;;
24745;SDS011;12845;52.042;6.838;2022-11-12T07:29:08;20.67;;;13.57;;
24745;SDS011;12845;52.042;6.838;2022-11-12T07:31:34;17.55;;;13.32;;
24745;SDS011;12845;52.042;6.838;2022-11-12T07:33:59;18.33;;;12.05;;
24745;SDS011;12845;52.042;6.838;2022-11-12T07:36:24;20.13;;;14.93;;
24745;SDS011;12845;52.042;6.838;2022-11-12T07:38:51;20.17;;;14.18;;
24745;SDS011;12845;52.042;6.838;2022-11-12T07:41:19;20.92;;;14.55;;
24745;SDS011;12845;52.042;6.838;2022-11-12T07:43:50;22.08;;;15.32;;
24745;SDS011;12845;52.042;6.838;2022-11-12T07:46:18;22.20;;;15.75;;
24745;SDS011;12845;52.042;6.838;2022-11-12T07:48:48;27.15;;;17.02;;
24745;SDS011;12845;52.042;6.838;2022-11-12T07:51:14;19.52;;;15.77;;
24745;SDS011;12845;52.042;6.838;2022-11-12T07:53:43;21.92;;;16.27;;
24745;SDS011;12845;52.042;6.838;2022-11-12T07:56:10;24.02;;;15.93;;
24745;SDS011;12845;52.042;6.838;2022-11-12T07:58:37;22.05;;;16.98;;
24745;SDS011;12845;52.042;6.838;2022-11-12T08:03:47;22.35;;;17.95;;
24745;SDS011;12845;52.042;6.838;2022-11-12T08:06:12;23.77;;;17.38;;
24745;SDS011;12845;52.042;6.838;2022-11-12T08:08:37;26.25;;;19.00;;
24745;SDS011;12845;52.042;6.838;2022-11-12T08:11:02;23.27;;;18.73;;
24745;SDS011;12845;52.042;6.838;2022-11-12T08:13:28;26.73;;;17.73;;
24745;SDS011;12845;52.042;6.838;2022-11-12T08:15:56;25.13;;;19.05;;
24745;SDS011;12845;52.042;6.838;2022-11-12T08:18:22;25.83;;;20.15;;
24745;SDS011;12845;52.042;6.838;2022-11-12T08:20:48;24.67;;;17.60;;
24745;SDS011;12845;52.042;6.838;2022-11-12T08:23:13;22.58;;;17.83;;
24745;SDS011;12845;52.042;6.838;2022-11-12T08:25:38;21.88;;;16.48;;
24745;SDS011;12845;52.042;6.838;2022-11-12T08:28:04;21.63;;;16.38;;
24745;SDS011;12845;52.042;6.838;2022-11-12T08:30:29;21.52;;;16.30;;
24745;SDS011;12845;52.042;6.838;2022-11-12T08:32:55;19.80;;;15.13;;
24745;SDS011;12845;52.042;6.838;2022-11-12T08:35:23;18.95;;;14.57;;
24745;SDS011;12845;52.042;6.838;2022-11-12T08:37:49;17.92;;;13.05;;
24745;SDS011;12845;52.042;6.838;2022-11-12T08:40:14;15.45;;;12.80;;
24745;SDS011;12845;52.042;6.838;2022-11-12T08:42:40;17.58;;;13.32;;
24745;SDS011;12845;52.042;6.838;2022-11-12T08:45:05;15.27;;;11.20;;
24745;SDS011;12845;52.042;6.838;2022-11-12T08:47:30;16.23;;;11.30;;
24745;SDS011;12845;52.042;6.838;2022-11-12T08:49:56;13.57;;;10.93;;
24745;SDS011;12845;52.042;6.838;2022-11-12T08:52:21;15.68;;;11.23;;
24745;SDS011;12845;52.042;6.838;2022-11-12T08:54:46;13.02;;;10.05;;
24745;SDS011;12845;52.042;6.838;2022-11-12T08:57:11;15.07;;;10.65;;
24745;SDS011;12845;52.042;6.838;2022-11-12T08:59:37;13.32;;;9.85;;
24745;SDS011;12845;52.042;6.838;2022-11-12T09:02:02;13.85;;;10.27;;
24745;SDS011;12845;52.042;6.838;2022-11-12T09:04:27;13.93;;;10.45;;
24745;SDS011;12845;52.042;6.838;2022-11-12T09:06:53;13.27;;;10.07;;
24745;SDS011;12845;52.042;6.838;2022-11-12T09:09:18;15.80;;;9.77;;
24745;SDS011;12845;52.042;6.838;2022-11-12T09:11:43;13.38;;;10.02;;
24745;SDS011;12845;52.042;6.838;2022-11-12T09:14:09;13.25;;;9.10;;
24745;SDS011;12845;52.042;6.838;2022-11-12T09:16:34;12.50;;;9.13;;
24745;SDS011;12845;52.042;6.838;2022-11-12T09:18:59;12.85;;;9.05;;
24745;SDS011;12845;52.042;6.838;2022-11-12T09:21:25;12.10;;;9.18;;
24745;SDS011;12845;52.042;6.838;2022-11-12T09:23:50;11.25;;;9.05;;
24745;SDS011;12845;52.042;6.838;2022-11-12T09:26:15;10.88;;;8.40;;
24745;SDS011;12845;52.042;6.838;2022-11-12T09:28:41;13.68;;;8.95;;
24745;SDS011;12845;52.042;6.838;2022-11-12T09:31:07;10.90;;;8.63;;
24745;SDS011;12845;52.042;6.838;2022-11-12T09:33:33;12.07;;;8.00;;
24745;SDS011;12845;52.042;6.838;2022-11-12T09:36:02;10.20;;;7.18;;
24745;SDS011;12845;52.042;6.838;2022-11-12T09:45:47;11.40;;;7.07;;
24745;SDS011;12845;52.042;6.838;2022-11-12T09:48:15;9.35;;;7.03;;
24745;SDS011;12845;52.042;6.838;2022-11-12T09:50:50;10.05;;;7.00;;
24745;SDS011;12845;52.042;6.838;2022-11-12T09:53:38;9.57;;;6.45;;
24745;SDS011;12845;52.042;6.838;2022-11-12T09:56:08;9.68;;;7.15;;
24745;SDS011;12845;52.042;6.838;2022-11-12T09:58:36;11.07;;;6.95;;
24745;SDS011;12845;52.042;6.838;2022-11-12T10:01:06;11.18;;;7.40;;
24745;SDS011;12845;52.042;6.838;2022-11-12T10:03:41;11.10;;;6.97;;
24745;SDS011;12845;52.042;6.838;2022-11-12T10:06:18;11.80;;;7.60;;
24745;SDS011;12845;52.042;6.838;2022-11-12T10:17:07;8.97;;;6.47;;
24745;SDS011;12845;52.042;6.838;2022-11-12T10:22:25;10.10;;;6.60;;
24745;SDS011;12845;52.042;6.838;2022-11-12T10:25:15;7.75;;;5.43;;
24745;SDS011;12845;52.042;6.838;2022-11-12T10:27:41;9.38;;;6.30;;
24745;SDS011;12845;52.042;6.838;2022-11-12T10:30:17;7.60;;;6.07;;
24745;SDS011;12845;52.042;6.838;2022-11-12T10:32:43;7.88;;;5.43;;
24745;SDS011;12845;52.042;6.838;2022-11-12T10:35:10;8.75;;;5.85;;
24745;SDS011;12845;52.042;6.838;2022-11-12T10:40:34;8.50;;;6.43;;
24745;SDS011;12845;52.042;6.838;2022-11-12T10:45:44;8.88;;;5.28;;
24745;SDS011;12845;52.042;6.838;2022-11-12T10:50:52;7.30;;;6.03;;
24745;SDS011;12845;52.042;6.838;2022-11-12T10:53:34;9.27;;;6.43;;
24745;SDS011;12845;52.042;6.838;2022-11-12T10:56:21;6.70;;;5.30;;
24745;SDS011;12845;52.042;6.838;2022-11-12T10:59:05;9.88;;;5.07;;
24745;SDS011;12845;52.042;6.838;2022-11-12T11:01:33;7.65;;;5.10;;
24745;SDS011;12845;52.042;6.838;2022-11-12T11:03:59;8.90;;;5.30;;
24745;SDS011;12845;52.042;6.838;2022-11-12T11:06:24;9.60;;;5.55;;
24745;SDS011;12845;52.042;6.838;2022-11-12T11:08:51;8.50;;;4.82;;
24745;SDS011;12845;52.042;6.838;2022-11-12T11:11:25;7.80;;;5.03;;
24745;SDS011;12845;52.042;6.838;2022-11-12T11:13:51;9.02;;;4.75;;
24745;SDS011;12845;52.042;6.838;2022-11-12T11:16:23;7.43;;;4.90;;
24745;SDS011;12845;52.042;6.838;2022-11-12T11:19:08;9.73;;;5.97;;
24745;SDS011;12845;52.042;6.838;2022-11-12T11:21:36;8.80;;;5.30;;
24745;SDS011;12845;52.042;6.838;2022-11-12T11:29:55;6.83;;;5.00;;
24745;SDS011;12845;52.042;6.838;2022-11-12T11:32:32;8.25;;;5.32;;
24745;SDS011;12845;52.042;6.838;2022-11-12T11:35:12;8.25;;;5.60;;
24745;SDS011;12845;52.042;6.838;2022-11-12T11:37:45;8.07;;;5.15;;
24745;SDS011;12845;52.042;6.838;2022-11-12T11:40:30;9.52;;;5.03;;
24745;SDS011;12845;52.042;6.838;2022-11-12T11:43:09;7.85;;;5.15;;
24745;SDS011;12845;52.042;6.838;2022-11-12T11:45:58;8.43;;;6.10;;
24745;SDS011;12845;52.042;6.838;2022-11-12T11:48:46;9.27;;;6.45;;
24745;SDS011;12845;52.042;6.838;2022-11-12T11:57:09;6.40;;;4.68;;
24745;SDS011;12845;52.042;6.838;2022-11-12T11:59:52;8.57;;;4.70;;
24745;SDS011;12845;52.042;6.838;2022-11-12T12:03:34;5.95;;;4.55;;
24745;SDS011;12845;52.042;6.838;2022-11-12T12:06:08;6.47;;;3.90;;
24745;SDS011;12845;52.042;6.838;2022-11-12T12:14:00;5.50;;;4.10;;
24745;SDS011;12845;52.042;6.838;2022-11-12T12:19:19;8.18;;;5.57;;
24745;SDS011;12845;52.042;6.838;2022-11-12T12:21:49;6.40;;;4.75;;
24745;SDS011;12845;52.042;6.838;2022-11-12T12:24:23;6.97;;;5.47;;
24745;SDS011;12845;52.042;6.838;2022-11-12T12:26:59;6.80;;;5.03;;
24745;SDS011;12845;52.042;6.838;2022-11-12T12:29:36;9.20;;;5.50;;
24745;SDS011;12845;52.042;6.838;2022-11-12T12:37:34;7.68;;;5.13;;
24745;SDS011;12845;52.042;6.838;2022-11-12T12:40:12;7.35;;;5.50;;
24745;SDS011;12845;52.042;6.838;2022-11-12T12:42:46;7.18;;;5.10;;
24745;SDS011;12845;52.042;6.838;2022-11-12T12:45:29;8.57;;;4.72;;
24745;SDS011;12845;52.042;6.838;2022-11-12T12:48:01;9.40;;;5.00;;
24745;SDS011;12845;52.042;6.838;2022-11-12T12:50:28;6.22;;;5.07;;
24745;SDS011;12845;52.042;6.838;2022-11-12T12:53:00;8.30;;;4.47;;
24745;SDS011;12845;52.042;6.838;2022-11-12T12:55:59;7.10;;;4.07;;
24745;SDS011;12845;52.042;6.838;2022-11-12T13:00:58;7.10;;;4.18;;
24745;SDS011;12845;52.042;6.838;2022-11-12T13:06:25;6.13;;;3.60;;
24745;SDS011;12845;52.042;6.838;2022-11-12T13:09:01;6.20;;;3.75;;
24745;SDS011;12845;52.042;6.838;2022-11-12T13:19:36;6.95;;;3.72;;
24745;SDS011;12845;52.042;6.838;2022-11-12T13:37:51;8.77;;;4.20;;
24745;SDS011;12845;52.042;6.838;2022-11-12T13:42:43;5.93;;;4.13;;
24745;SDS011;12845;52.042;6.838;2022-11-12T13:45:15;6.25;;;4.30;;
24745;SDS011;12845;52.042;6.838;2022-11-12T13:47:41;6.45;;;4.00;;
24745;SDS011;12845;52.042;6.838;2022-11-12T13:50:08;5.75;;;3.97;;
24745;SDS011;12845;52.042;6.838;2022-11-12T13:52:40;7.68;;;4.40;;
24745;SDS011;12845;52.042;6.838;2022-11-12T13:55:15;7.85;;;4.22;;
24745;SDS011;12845;52.042;6.838;2022-11-12T13:57:48;7.18;;;4.50;;
24745;SDS011;12845;52.042;6.838;2022-11-12T14:00:21;7.32;;;4.68;;
24745;SDS011;12845;52.042;6.838;2022-11-12T14:02:51;6.05;;;4.40;;
24745;SDS011;12845;52.042;6.838;2022-11-12T14:05:21;7.05;;;5.00;;
24745;SDS011;12845;52.042;6.838;2022-11-12T14:11:24;7.18;;;4.70;;
24745;SDS011;12845;52.042;6.838;2022-11-12T14:24:31;7.40;;;4.68;;
24745;SDS011;12845;52.042;6.838;2022-11-12T14:26:56;6.90;;;5.10;;
24745;SDS011;12845;52.042;6.838;2022-11-12T14:29:22;8.43;;;5.00;;
24745;SDS011;12845;52.042;6.838;2022-11-12T14:31:47;7.78;;;5.07;;
24745;SDS011;12845;52.042;6.838;2022-11-12T14:34:28;8.80;;;5.50;;
24745;SDS011;12845;52.042;6.838;2022-11-12T14:36:56;8.07;;;5.25;;
24745;SDS011;12845;52.042;6.838;2022-11-12T14:39:22;7.70;;;5.55;;
24745;SDS011;12845;52.042;6.838;2022-11-12T14:41:48;8.82;;;5.22;;
24745;SDS011;12845;52.042;6.838;2022-11-12T14:44:19;8.23;;;5.35;;
24745;SDS011;12845;52.042;6.838;2022-11-12T14:46:48;10.02;;;5.97;;
24745;SDS011;12845;52.042;6.838;2022-11-12T14:49:20;6.93;;;5.35;;
24745;SDS011;12845;52.042;6.838;2022-11-12T14:51:54;7.72;;;5.15;;
24745;SDS011;12845;52.042;6.838;2022-11-12T14:54:35;7.27;;;4.97;;
24745;SDS011;12845;52.042;6.838;2022-11-12T14:57:06;8.05;;;5.30;;
24745;SDS011;12845;52.042;6.838;2022-11-12T14:59:34;9.15;;;5.15;;
24745;SDS011;12845;52.042;6.838;2022-11-12T15:02:05;8.02;;;4.97;;
24745;SDS011;12845;52.042;6.838;2022-11-12T15:04:49;8.85;;;5.13;;
24745;SDS011;12845;52.042;6.838;2022-11-12T15:07:29;8.40;;;5.60;;
24745;SDS011;12845;52.042;6.838;2022-11-12T15:09:57;9.20;;;5.55;;
24745;SDS011;12845;52.042;6.838;2022-11-12T15:12:23;8.55;;;5.63;;
24745;SDS011;12845;52.042;6.838;2022-11-12T15:14:51;8.15;;;5.32;;
24745;SDS011;12845;52.042;6.838;2022-11-12T15:17:31;8.48;;;5.32;;
24745;SDS011;12845;52.042;6.838;2022-11-12T15:20:05;9.52;;;5.80;;
24745;SDS011;12845;52.042;6.838;2022-11-12T15:22:37;7.55;;;5.55;;
24745;SDS011;12845;52.042;6.838;2022-11-12T15:25:36;9.77;;;5.78;;
24745;SDS011;12845;52.042;6.838;2022-11-12T15:27:55;8.85;;;5.18;;
24745;SDS011;12845;52.042;6.838;2022-11-12T15:30:35;9.02;;;5.55;;
24745;SDS011;12845;52.042;6.838;2022-11-12T15:35:35;7.75;;;5.70;;
24745;SDS011;12845;52.042;6.838;2022-11-12T15:38:05;9.50;;;5.38;;
24745;SDS011;12845;52.042;6.838;2022-11-12T15:40:40;8.60;;;5.75;;
24745;SDS011;12845;52.042;6.838;2022-11-12T15:43:11;10.27;;;6.60;;
24745;SDS011;12845;52.042;6.838;2022-11-12T15:45:41;10.75;;;6.40;;
24745;SDS011;12845;52.042;6.838;2022-11-12T15:48:08;8.55;;;6.40;;
24745;SDS011;12845;52.042;6.838;2022-11-12T15:50:35;10.68;;;7.40;;
24745;SDS011;12845;52.042;6.838;2022-11-12T15:53:03;8.80;;;5.80;;
24745;SDS011;12845;52.042;6.838;2022-11-12T15:55:28;8.93;;;6.72;;
24745;SDS011;12845;52.042;6.838;2022-11-12T15:57:53;10.38;;;6.47;;
24745;SDS011;12845;52.042;6.838;2022-11-12T16:00:23;10.77;;;6.97;;
24745;SDS011;12845;52.042;6.838;2022-11-12T16:02:56;12.27;;;8.82;;
24745;SDS011;12845;52.042;6.838;2022-11-12T16:05:23;13.20;;;7.47;;
24745;SDS011;12845;52.042;6.838;2022-11-12T16:07:49;12.15;;;6.82;;
24745;SDS011;12845;52.042;6.838;2022-11-12T16:10:15;9.75;;;6.80;;
24745;SDS011;12845;52.042;6.838;2022-11-12T16:12:42;12.75;;;7.35;;
24745;SDS011;12845;52.042;6.838;2022-11-12T16:17:37;11.75;;;6.90;;
24745;SDS011;12845;52.042;6.838;2022-11-12T16:20:22;11.43;;;7.43;;
24745;SDS011;12845;52.042;6.838;2022-11-12T16:22:48;11.45;;;8.30;;
24745;SDS011;12845;52.042;6.838;2022-11-12T16:25:13;12.75;;;8.60;;
24745;SDS011;12845;52.042;6.838;2022-11-12T16:27:39;12.15;;;7.90;;
24745;SDS011;12845;52.042;6.838;2022-11-12T16:30:21;12.55;;;8.40;;